Time;durP1;ratioP1;P1;durP2;ratioP2;P2;SDS_P1;SDS_P2;PMS_P1;PMS_P2;Temp;Humidity;BMP_temperature;BMP_pressure;BME280_temperature;BME280_humidity;BME280_pressure;Samples;Min_cycle;Max_cycle;Signal;HPM_P1;HPM_P2
2023/09/29 00:01:28;;;;;;;7.75;4.05;;;22.90;99.90;;;;;;5050665;28;20200;-78
2023/09/29 00:03:59;;;;;;;6.70;3.75;;;23.00;99.90;;;;;;5040635;28;20537;-79
2023/09/29 00:06:30;;;;;;;5.32;3.45;;;23.00;99.90;;;;;;5023944;28;20228;-79
2023/09/29 00:09:03;;;;;;;6.47;3.80;;;23.10;99.90;;;;;;5029834;28;20203;-78
2023/09/29 00:11:35;;;;;;;4.07;3.30;;;23.40;99.90;;;;;;5030607;28;20220;-78
2023/09/29 00:14:06;;;;;;;5.82;3.50;;;23.50;99.90;;;;;;5029611;28;20684;-78
2023/09/29 00:16:36;;;;;;;3.97;3.22;;;23.60;99.90;;;;;;5019748;28;20221;-77
2023/09/29 00:19:07;;;;;;;4.18;3.15;;;23.40;99.90;;;;;;5027029;28;20194;-79
2023/09/29 00:21:38;;;;;;;4.47;3.13;;;23.40;99.90;;;;;;5023462;28;20190;-79
2023/09/29 00:24:11;;;;;;;4.88;3.15;;;23.50;99.90;;;;;;5029808;28;20193;-79
2023/09/29 00:26:42;;;;;;;4.30;3.17;;;23.60;99.90;;;;;;5011296;28;20272;-79
2023/09/29 00:29:18;;;;;;;4.43;3.08;;;23.80;99.90;;;;;;5021876;28;20189;-79
2023/09/29 00:31:49;;;;;;;7.10;3.30;;;23.90;99.90;;;;;;5026852;28;20201;-79
2023/09/29 00:34:20;;;;;;;5.00;3.22;;;24.10;99.90;;;;;;5031242;28;20200;-78
2023/09/29 00:36:51;;;;;;;4.07;2.80;;;24.30;99.90;;;;;;5030275;28;20194;-79
2023/09/29 00:39:23;;;;;;;3.17;2.88;;;24.40;99.90;;;;;;5029959;28;20193;-79
2023/09/29 00:41:54;;;;;;;3.65;2.85;;;24.60;99.90;;;;;;5030346;28;20197;-79
2023/09/29 00:44:25;;;;;;;3.97;2.83;;;24.70;99.90;;;;;;5030589;28;20204;-78
2023/09/29 00:46:56;;;;;;;3.53;2.60;;;24.80;99.90;;;;;;5030275;28;20232;-78
2023/09/29 00:49:29;;;;;;;3.28;2.88;;;24.90;99.90;;;;;;5011940;28;20198;-79
2023/09/29 00:52:02;;;;;;;4.15;2.80;;;25.20;99.90;;;;;;5026893;28;20200;-79
2023/09/29 00:54:37;;;;;;;3.92;2.88;;;25.30;99.90;;;;;;5030447;28;20276;-80
2023/09/29 00:57:08;;;;;;;4.15;2.45;;;25.40;99.90;;;;;;5029669;28;20208;-79
2023/09/29 00:59:39;;;;;;;6.03;2.80;;;25.50;99.90;;;;;;5011079;28;20238;-80
2023/09/29 01:02:10;;;;;;;7.10;3.00;;;25.60;99.90;;;;;;5023214;28;20276;-80
2023/09/29 01:04:43;;;;;;;3.65;2.83;;;25.70;99.90;;;;;;5025550;28;20209;-80
2023/09/29 01:07:14;;;;;;;5.82;2.70;;;25.70;99.90;;;;;;5023606;28;20197;-79
2023/09/29 01:09:50;;;;;;;3.42;2.85;;;25.80;99.90;;;;;;5030591;28;20198;-80
2023/09/29 01:12:30;;;;;;;2.95;2.70;;;25.90;99.90;;;;;;5030059;28;20276;-80
2023/09/29 01:15:01;;;;;;;3.05;2.75;;;26.00;99.90;;;;;;5029453;28;20221;-80
2023/09/29 01:17:33;;;;;;;3.47;2.65;;;26.10;99.90;;;;;;5013919;28;20249;-78
2023/09/29 01:20:12;;;;;;;3.10;2.80;;;26.20;99.90;;;;;;5016054;28;20209;-79
2023/09/29 01:22:48;;;;;;;3.15;2.78;;;26.30;99.90;;;;;;5030670;28;20193;-79
2023/09/29 01:25:21;;;;;;;3.13;2.70;;;26.50;99.90;;;;;;5020478;28;20228;-79
2023/09/29 01:27:52;;;;;;;3.00;2.53;;;26.50;99.90;;;;;;5010577;28;20261;-79
2023/09/29 01:30:24;;;;;;;6.00;2.63;;;26.60;99.90;;;;;;5021887;28;20281;-79
2023/09/29 01:32:57;;;;;;;6.10;3.20;;;26.70;99.90;;;;;;5010573;28;20206;-80
2023/09/29 01:35:28;;;;;;;6.90;2.90;;;26.80;99.90;;;;;;5012221;28;20202;-80
2023/09/29 01:38:01;;;;;;;3.85;3.08;;;26.90;99.90;;;;;;5018026;28;20208;-79
2023/09/29 01:40:33;;;;;;;5.30;3.15;;;26.90;99.90;;;;;;5021063;28;20194;-78
2023/09/29 01:43:05;;;;;;;5.35;2.90;;;26.90;99.90;;;;;;5030623;28;20267;-79
2023/09/29 01:45:38;;;;;;;6.05;3.30;;;27.10;99.90;;;;;;5029733;28;20260;-79
2023/09/29 01:48:09;;;;;;;7.65;3.33;;;27.10;99.90;;;;;;5030608;28;20200;-80
2023/09/29 01:50:40;;;;;;;5.22;3.28;;;27.00;99.90;;;;;;5030724;28;20201;-79
2023/09/29 01:53:11;;;;;;;7.85;3.40;;;26.80;99.90;;;;;;5033358;28;20228;-79
2023/09/29 01:55:44;;;;;;;7.45;3.65;;;26.80;99.90;;;;;;5035479;28;20204;-79
2023/09/29 01:58:15;;;;;;;7.25;4.05;;;26.90;99.90;;;;;;5034115;28;20537;-80
2023/09/29 02:00:46;;;;;;;5.85;3.70;;;26.70;99.90;;;;;;5021595;28;20289;-79
2023/09/29 02:03:17;;;;;;;10.25;4.07;;;26.90;99.90;;;;;;5033373;28;20614;-79
2023/09/29 02:05:47;;;;;;;7.68;4.10;;;27.10;99.90;;;;;;5033493;28;20221;-79
2023/09/29 02:08:18;;;;;;;7.72;4.10;;;27.00;99.90;;;;;;5032352;28;20209;-79
2023/09/29 02:10:52;;;;;;;11.35;4.28;;;27.00;99.90;;;;;;5033353;28;20201;-79
2023/09/29 02:13:22;;;;;;;9.95;4.13;;;27.10;99.90;;;;;;5032488;28;20334;-80
2023/09/29 02:15:53;;;;;;;8.38;4.20;;;27.00;99.90;;;;;;5043066;28;20652;-79
2023/09/29 02:18:24;;;;;;;10.50;4.38;;;27.00;99.90;;;;;;5053008;28;20212;-79
2023/09/29 02:20:57;;;;;;;13.65;4.75;;;26.70;99.90;;;;;;5053178;28;20197;-79
2023/09/29 02:23:28;;;;;;;7.30;4.75;;;26.70;99.90;;;;;;5025385;28;20652;-80
2023/09/29 02:26:01;;;;;;;7.82;4.47;;;26.50;99.90;;;;;;5032890;28;20225;-79
2023/09/29 02:28:32;;;;;;;10.43;4.80;;;26.40;99.90;;;;;;5018878;28;20280;-79
2023/09/29 02:31:03;;;;;;;8.90;4.18;;;26.40;99.90;;;;;;5025511;28;20189;-80
2023/09/29 02:33:34;;;;;;;9.15;4.68;;;26.60;99.90;;;;;;5033505;28;20202;-80
2023/09/29 02:36:05;;;;;;;11.10;4.43;;;26.80;99.90;;;;;;5032551;28;20299;-79
2023/09/29 02:38:36;;;;;;;6.00;4.22;;;26.90;99.90;;;;;;5032671;28;20219;-79
2023/09/29 02:41:09;;;;;;;7.10;3.95;;;27.10;99.90;;;;;;5031542;28;20197;-80
2023/09/29 02:43:40;;;;;;;7.13;3.65;;;27.10;99.90;;;;;;5033032;28;20197;-80
2023/09/29 02:46:17;;;;;;;7.18;3.78;;;27.10;99.90;;;;;;5032956;28;20233;-80
2023/09/29 02:48:48;;;;;;;5.72;3.95;;;27.20;99.90;;;;;;5027622;28;20197;-79
2023/09/29 02:51:20;;;;;;;7.30;4.22;;;27.30;99.90;;;;;;5030789;28;20266;-79
2023/09/29 02:53:54;;;;;;;6.13;4.18;;;27.40;99.90;;;;;;5025301;28;20210;-79
2023/09/29 02:56:27;;;;;;;8.15;4.15;;;27.40;99.90;;;;;;5021370;28;20465;-78
2023/09/29 02:58:57;;;;;;;8.77;3.90;;;27.40;99.90;;;;;;5021419;28;20190;-77
2023/09/29 03:01:28;;;;;;;9.25;4.43;;;27.60;99.90;;;;;;5032065;28;20198;-78
2023/09/29 03:03:59;;;;;;;7.80;4.47;;;27.70;99.90;;;;;;5032117;28;20193;-79
2023/09/29 03:06:29;;;;;;;8.85;4.40;;;27.80;99.90;;;;;;5031650;28;20228;-78
2023/09/29 03:09:00;;;;;;;9.88;4.18;;;28.00;99.90;;;;;;5028696;28;20215;-77
2023/09/29 03:11:34;;;;;;;8.07;4.22;;;27.90;99.90;;;;;;5033503;28;20197;-77
2023/09/29 03:14:04;;;;;;;4.57;3.53;;;28.10;99.90;;;;;;5031533;28;20567;-77
2023/09/29 03:16:36;;;;;;;8.75;3.92;;;28.00;99.90;;;;;;5031816;28;20694;-77
2023/09/29 03:19:08;;;;;;;6.90;3.40;;;28.00;99.90;;;;;;5032154;28;20197;-77
2023/09/29 03:21:39;;;;;;;7.60;3.67;;;28.10;99.90;;;;;;5032039;28;20205;-77
2023/09/29 03:24:10;;;;;;;6.57;3.70;;;28.20;99.90;;;;;;5029852;28;20213;-77
2023/09/29 03:26:44;;;;;;;5.75;3.42;;;28.20;99.90;;;;;;5018045;28;20221;-78
2023/09/29 03:29:15;;;;;;;6.18;3.38;;;28.20;99.90;;;;;;5023921;28;20280;-78
2023/09/29 03:31:46;;;;;;;7.40;3.72;;;28.20;99.90;;;;;;5017355;28;20193;-79
2023/09/29 03:34:19;;;;;;;5.75;3.30;;;28.30;99.90;;;;;;5031685;28;20300;-78
2023/09/29 03:36:50;;;;;;;4.28;3.25;;;28.40;99.90;;;;;;5031541;28;20193;-78
2023/09/29 03:39:20;;;;;;;5.97;3.60;;;28.60;99.90;;;;;;5031811;28;20205;-79
2023/09/29 03:41:55;;;;;;;5.80;3.20;;;28.80;99.90;;;;;;5028929;28;20664;-78
2023/09/29 03:44:26;;;;;;;6.75;3.30;;;28.80;99.90;;;;;;5026992;28;20205;-78
2023/09/29 03:46:56;;;;;;;4.22;3.10;;;28.80;99.90;;;;;;5030452;28;20715;-78
2023/09/29 03:49:27;;;;;;;5.53;2.90;;;28.70;99.70;;;;;;5027549;28;20229;-77
2023/09/29 03:51:59;;;;;;;4.22;2.90;;;28.60;99.60;;;;;;5022839;28;20197;-78
2023/09/29 03:54:30;;;;;;;6.63;3.08;;;28.60;98.90;;;;;;5032279;28;20217;-78
2023/09/29 03:57:08;;;;;;;4.75;3.08;;;28.60;98.90;;;;;;5028271;28;20635;-78
2023/09/29 03:59:38;;;;;;;4.60;2.90;;;28.50;99.00;;;;;;5031709;28;20197;-78
2023/09/29 04:02:09;;;;;;;8.38;3.30;;;28.50;98.60;;;;;;5035864;28;20571;-77
2023/09/29 04:04:40;;;;;;;6.70;3.10;;;28.50;98.00;;;;;;5035779;28;20208;-77
2023/09/29 04:07:10;;;;;;;3.03;2.72;;;28.40;99.20;;;;;;5035296;28;20269;-77
2023/09/29 04:09:41;;;;;;;5.47;3.17;;;28.30;99.90;;;;;;5030862;28;20200;-78
2023/09/29 04:12:14;;;;;;;5.20;3.67;;;28.30;99.90;;;;;;5032731;28;20668;-77
2023/09/29 04:14:45;;;;;;;7.00;3.47;;;28.20;99.90;;;;;;5031745;28;20205;-77
2023/09/29 04:17:15;;;;;;;3.75;2.90;;;28.00;99.90;;;;;;5032496;28;20593;-77
2023/09/29 04:19:47;;;;;;;4.75;2.92;;;28.00;99.90;;;;;;5021933;28;20194;-77
2023/09/29 04:22:17;;;;;;;6.30;3.40;;;28.00;99.90;;;;;;5011589;28;20641;-77
2023/09/29 04:24:48;;;;;;;4.68;3.30;;;27.90;99.90;;;;;;5013843;28;20198;-77
2023/09/29 04:27:21;;;;;;;5.35;3.50;;;28.00;99.90;;;;;;5011727;28;20638;-78
2023/09/29 04:29:52;;;;;;;3.47;2.92;;;27.90;99.90;;;;;;5011424;28;20201;-79
2023/09/29 04:32:22;;;;;;;9.98;3.10;;;27.80;99.90;;;;;;5026466;28;20205;-80
2023/09/29 04:34:53;;;;;;;4.85;2.80;;;27.70;99.90;;;;;;5028638;28;20201;-78
2023/09/29 04:37:24;;;;;;;5.32;3.28;;;27.60;99.90;;;;;;5011539;28;20258;-78
2023/09/29 04:39:55;;;;;;;6.82;2.92;;;27.60;99.90;;;;;;5011465;28;20198;-78
2023/09/29 04:42:28;;;;;;;5.20;2.90;;;27.40;99.90;;;;;;5027756;28;20204;-78
2023/09/29 04:44:58;;;;;;;5.63;3.03;;;27.40;99.90;;;;;;5030594;28;20201;-79
2023/09/29 04:47:30;;;;;;;5.00;3.20;;;27.40;99.90;;;;;;5027449;28;20232;-78
2023/09/29 04:50:00;;;;;;;6.70;3.30;;;27.30;99.90;;;;;;5049930;28;20297;-78
2023/09/29 04:52:31;;;;;;;4.97;3.20;;;27.00;99.90;;;;;;5048064;28;20287;-78
2023/09/29 04:55:02;;;;;;;4.93;2.90;;;26.90;99.90;;;;;;5028267;28;20203;-77
2023/09/29 04:57:35;;;;;;;3.58;3.00;;;26.70;99.90;;;;;;5032960;28;20204;-77
2023/09/29 05:00:07;;;;;;;6.03;3.30;;;26.70;99.90;;;;;;5032857;28;20201;-77
2023/09/29 05:02:38;;;;;;;5.28;3.28;;;26.70;99.90;;;;;;5027086;28;20193;-78
2023/09/29 05:05:09;;;;;;;3.92;3.00;;;26.70;99.90;;;;;;5030514;28;20205;-77
2023/09/29 05:07:40;;;;;;;5.28;3.53;;;26.80;99.90;;;;;;5019299;28;20229;-78
2023/09/29 05:10:13;;;;;;;4.10;3.33;;;26.90;99.90;;;;;;5011729;28;20212;-78
2023/09/29 05:12:46;;;;;;;6.55;3.50;;;27.00;99.90;;;;;;5012568;28;20230;-78
2023/09/29 05:15:17;;;;;;;6.15;3.28;;;26.90;99.90;;;;;;5020247;28;20193;-77
2023/09/29 05:17:48;;;;;;;4.03;3.10;;;26.90;99.90;;;;;;5022680;28;20243;-77
2023/09/29 05:20:19;;;;;;;4.85;2.95;;;26.80;99.90;;;;;;5030582;28;20205;-77
2023/09/29 05:22:50;;;;;;;4.30;3.03;;;26.90;99.90;;;;;;5035770;28;20240;-78
2023/09/29 05:25:20;;;;;;;4.72;2.78;;;26.90;99.90;;;;;;5030014;28;20193;-78
2023/09/29 05:27:53;;;;;;;5.90;3.08;;;26.80;99.90;;;;;;5023174;28;20221;-78
2023/09/29 05:30:24;;;;;;;4.68;3.28;;;26.70;99.90;;;;;;5033610;28;20572;-78
2023/09/29 05:32:54;;;;;;;5.43;3.08;;;26.50;99.90;;;;;;5036000;28;20205;-77
2023/09/29 05:35:25;;;;;;;8.90;3.20;;;26.70;99.90;;;;;;5035147;28;20280;-78
2023/09/29 05:37:56;;;;;;;4.53;3.00;;;26.90;99.90;;;;;;5033794;28;20560;-78
2023/09/29 05:40:27;;;;;;;5.75;3.30;;;27.10;99.90;;;;;;5049022;28;20204;-78
2023/09/29 05:42:59;;;;;;;4.07;2.97;;;27.30;99.90;;;;;;5054466;28;20271;-78
2023/09/29 05:45:30;;;;;;;5.10;3.22;;;27.30;99.90;;;;;;5050422;28;20201;-77
2023/09/29 05:48:01;;;;;;;5.05;3.30;;;27.30;99.90;;;;;;5030573;28;20231;-77
2023/09/29 05:50:31;;;;;;;4.40;3.13;;;27.40;99.90;;;;;;5032956;28;20216;-78
2023/09/29 05:53:02;;;;;;;3.83;3.13;;;27.50;99.90;;;;;;5035262;28;20221;-79
2023/09/29 05:55:33;;;;;;;4.15;3.10;;;27.80;99.90;;;;;;5034408;28;20632;-78
2023/09/29 05:58:06;;;;;;;3.65;2.88;;;27.80;99.90;;;;;;5053558;28;20205;-78
2023/09/29 06:00:37;;;;;;;3.03;2.65;;;28.10;99.90;;;;;;5026092;28;20205;-77
2023/09/29 06:03:08;;;;;;;6.03;3.20;;;28.10;99.90;;;;;;5013937;28;20289;-79
2023/09/29 06:05:39;;;;;;;3.17;2.45;;;28.30;98.70;;;;;;5019174;28;20201;-77
2023/09/29 06:08:10;;;;;;;2.08;1.83;;;28.50;94.10;;;;;;5031685;28;20217;-77
2023/09/29 06:10:41;;;;;;;2.88;2.38;;;28.80;91.60;;;;;;5023424;28;20577;-78
2023/09/29 06:13:13;;;;;;;4.50;2.35;;;29.00;91.70;;;;;;5029493;28;20680;-78
2023/09/29 06:15:44;;;;;;;3.20;2.63;;;29.20;91.20;;;;;;5032624;28;20564;-79
2023/09/29 06:18:15;;;;;;;3.47;2.53;;;29.20;91.60;;;;;;5033805;28;20209;-78
2023/09/29 06:20:45;;;;;;;3.00;2.70;;;29.40;89.60;;;;;;5033219;28;20202;-78
2023/09/29 06:23:17;;;;;;;4.38;2.90;;;29.60;85.60;;;;;;5032036;28;20219;-78
2023/09/29 06:25:47;;;;;;;4.60;2.70;;;29.70;85.80;;;;;;5029598;28;20197;-78
2023/09/29 06:28:20;;;;;;;3.22;2.80;;;29.80;83.10;;;;;;5032937;28;20232;-78
2023/09/29 06:30:52;;;;;;;3.40;2.40;;;29.90;79.40;;;;;;5040772;28;20196;-78
2023/09/29 06:33:23;;;;;;;5.43;2.70;;;29.90;74.00;;;;;;5024214;28;20661;-78
2023/09/29 06:35:54;;;;;;;3.55;3.00;;;29.70;70.90;;;;;;5014885;28;20209;-78
2023/09/29 06:38:25;;;;;;;4.05;3.63;;;29.80;69.70;;;;;;5013199;28;20208;-78
2023/09/29 06:40:57;;;;;;;2.83;2.47;;;29.90;71.00;;;;;;5013520;28;20318;-78
2023/09/29 06:43:29;;;;;;;3.67;2.72;;;30.00;70.90;;;;;;5019488;28;20222;-77
2023/09/29 06:46:00;;;;;;;4.88;2.50;;;30.00;71.50;;;;;;5016109;28;20198;-78
2023/09/29 06:48:31;;;;;;;3.05;2.47;;;29.70;69.70;;;;;;5052526;28;20228;-78
2023/09/29 06:51:02;;;;;;;3.42;2.38;;;29.80;68.10;;;;;;5035140;28;20198;-78
2023/09/29 06:53:33;;;;;;;3.08;2.35;;;29.70;68.10;;;;;;5021929;28;20684;-78
2023/09/29 06:56:04;;;;;;;4.10;2.67;;;29.80;70.10;;;;;;5041020;28;20208;-78
2023/09/29 06:58:36;;;;;;;4.03;2.90;;;29.70;70.30;;;;;;5034979;28;20194;-78
2023/09/29 07:01:07;;;;;;;2.53;2.30;;;29.40;70.90;;;;;;5029297;28;20201;-79
2023/09/29 07:03:38;;;;;;;5.57;2.50;;;29.10;70.90;;;;;;5032348;28;20300;-78
2023/09/29 07:06:09;;;;;;;4.15;2.60;;;28.60;73.80;;;;;;5030654;28;20280;-77
2023/09/29 07:08:39;;;;;;;3.20;2.42;;;28.20;76.50;;;;;;5031128;28;20220;-78
2023/09/29 07:11:10;;;;;;;3.38;2.30;;;27.80;79.30;;;;;;5032306;28;20656;-77
2023/09/29 07:13:43;;;;;;;3.15;2.80;;;27.60;83.80;;;;;;5032065;28;20708;-77
2023/09/29 07:16:17;;;;;;;3.38;2.60;;;27.30;87.30;;;;;;5024379;28;20266;-78
2023/09/29 07:18:48;;;;;;;3.17;2.72;;;27.10;90.40;;;;;;5024952;28;20198;-78
2023/09/29 07:21:19;;;;;;;4.65;3.20;;;26.80;92.00;;;;;;5026499;28;20205;-77
2023/09/29 07:23:50;;;;;;;4.38;2.80;;;26.60;93.50;;;;;;5035212;28;20205;-79
2023/09/29 07:26:21;;;;;;;5.53;2.90;;;26.30;93.90;;;;;;5032403;28;20200;-78
2023/09/29 07:28:56;;;;;;;5.70;2.95;;;26.10;95.10;;;;;;5031382;28;20283;-78
2023/09/29 07:31:38;;;;;;;2.97;2.42;;;25.90;97.00;;;;;;5026361;28;20189;-78
2023/09/29 07:34:09;;;;;;;5.88;2.90;;;25.60;99.20;;;;;;5031659;28;20645;-78
2023/09/29 07:36:41;;;;;;;4.50;2.85;;;25.40;99.90;;;;;;5030929;28;20289;-77
2023/09/29 07:39:13;;;;;;;4.60;3.20;;;25.20;99.90;;;;;;5031195;28;20568;-76
2023/09/29 07:41:44;;;;;;;5.57;2.90;;;24.90;99.90;;;;;;5030676;28;20376;-76
2023/09/29 07:44:16;;;;;;;8.32;4.03;;;24.70;99.90;;;;;;5032339;28;20198;-78
2023/09/29 07:46:52;;;;;;;6.30;3.50;;;24.50;99.90;;;;;;5032933;28;20209;-77
2023/09/29 07:49:24;;;;;;;5.70;3.35;;;24.30;99.90;;;;;;5029912;28;20203;-77
2023/09/29 07:51:55;;;;;;;6.25;3.72;;;24.10;99.90;;;;;;5028787;28;20281;-78
2023/09/29 07:54:26;;;;;;;6.57;3.45;;;23.90;99.90;;;;;;5024715;28;20225;-77
2023/09/29 07:56:56;;;;;;;6.00;3.50;;;23.70;99.90;;;;;;5031319;28;20224;-77
2023/09/29 07:59:29;;;;;;;11.90;4.40;;;23.70;99.90;;;;;;5019633;28;20577;-77
2023/09/29 08:02:00;;;;;;;6.72;4.38;;;23.60;99.90;;;;;;5011949;28;20202;-77
2023/09/29 08:04:30;;;;;;;7.65;4.28;;;23.40;99.90;;;;;;5011747;28;20573;-78
2023/09/29 08:07:01;;;;;;;6.70;4.25;;;23.40;99.90;;;;;;5029204;28;20608;-77
2023/09/29 08:09:32;;;;;;;7.00;3.90;;;23.20;99.90;;;;;;5011576;28;20190;-77
2023/09/29 08:12:03;;;;;;;9.02;4.35;;;23.20;99.90;;;;;;5015824;28;20571;-78
2023/09/29 08:14:36;;;;;;;8.35;4.80;;;23.10;99.90;;;;;;5031940;28;20205;-77
2023/09/29 08:17:07;;;;;;;9.88;4.30;;;23.00;99.90;;;;;;5031137;28;20220;-77
2023/09/29 08:19:39;;;;;;;5.82;3.97;;;22.90;99.90;;;;;;5012285;28;20713;-76
2023/09/29 08:22:10;;;;;;;10.27;4.47;;;22.80;99.90;;;;;;5031051;28;20271;-78
2023/09/29 08:24:41;;;;;;;8.27;4.50;;;22.70;99.90;;;;;;5030694;28;20592;-77
2023/09/29 08:27:15;;;;;;;8.13;4.15;;;22.70;99.90;;;;;;5011664;28;20216;-77
2023/09/29 08:29:48;;;;;;;9.02;4.25;;;22.60;99.90;;;;;;5027889;28;20281;-77
2023/09/29 08:32:19;;;;;;;8.20;4.32;;;22.50;99.90;;;;;;5011819;28;20205;-77
2023/09/29 08:34:50;;;;;;;7.03;4.13;;;22.40;99.90;;;;;;5011471;28;20198;-78
2023/09/29 08:37:20;;;;;;;5.80;4.50;;;22.40;99.90;;;;;;5012172;28;20198;-78
2023/09/29 08:39:53;;;;;;;7.13;4.53;;;22.40;99.90;;;;;;5015309;28;20197;-78
2023/09/29 08:42:34;;;;;;;8.05;4.57;;;22.30;99.90;;;;;;5011617;28;20549;-77
2023/09/29 08:45:11;;;;;;;7.80;5.30;;;22.20;99.90;;;;;;5030662;28;20193;-77
2023/09/29 08:47:43;;;;;;;7.93;4.85;;;22.20;99.90;;;;;;5025349;28;20308;-77
2023/09/29 08:50:14;;;;;;;7.38;4.38;;;22.10;99.90;;;;;;5011275;28;20202;-78
2023/09/29 08:52:46;;;;;;;10.18;5.05;;;22.10;99.90;;;;;;5011787;28;20306;-78
2023/09/29 08:55:18;;;;;;;9.15;4.65;;;22.00;99.90;;;;;;5011465;28;20198;-77
2023/09/29 08:57:49;;;;;;;7.40;4.72;;;22.00;99.90;;;;;;5017726;28;20248;-78
2023/09/29 09:00:24;;;;;;;6.88;4.30;;;22.00;99.90;;;;;;5031998;28;20205;-78
2023/09/29 09:02:55;;;;;;;6.50;4.78;;;22.00;99.90;;;;;;5029664;28;20251;-77
2023/09/29 09:05:26;;;;;;;7.35;4.30;;;22.00;99.90;;;;;;5025563;28;20189;-77
2023/09/29 09:07:58;;;;;;;6.75;4.25;;;21.90;99.90;;;;;;5034658;28;20725;-78
2023/09/29 09:10:36;;;;;;;4.60;3.80;;;21.90;99.90;;;;;;5034029;28;20571;-78
2023/09/29 09:13:07;;;;;;;6.55;4.20;;;21.90;99.90;;;;;;5034497;28;20235;-78
2023/09/29 09:15:40;;;;;;;5.53;3.95;;;21.90;99.90;;;;;;5033901;28;20397;-77
2023/09/29 09:18:11;;;;;;;8.15;4.10;;;21.80;99.90;;;;;;5034281;28;20204;-77
2023/09/29 09:20:42;;;;;;;6.30;4.05;;;21.80;99.90;;;;;;5034002;28;20746;-78
2023/09/29 09:23:13;;;;;;;6.00;3.88;;;21.80;99.90;;;;;;5036545;28;20575;-77
2023/09/29 09:25:44;;;;;;;7.43;4.53;;;21.80;99.90;;;;;;5035815;28;20665;-78
2023/09/29 09:28:19;;;;;;;8.35;5.72;;;21.80;99.90;;;;;;5034526;28;20699;-78
2023/09/29 09:31:02;;;;;;;10.10;6.43;;;21.70;99.90;;;;;;5023865;28;20189;-77
2023/09/29 09:33:33;;;;;;;7.90;5.45;;;21.70;99.90;;;;;;5023592;28;20564;-77
2023/09/29 09:36:09;;;;;;;7.90;5.05;;;21.70;99.90;;;;;;5031396;28;20198;-76
2023/09/29 09:38:40;;;;;;;6.80;4.30;;;21.70;99.90;;;;;;5034168;28;20236;-76
2023/09/29 09:41:12;;;;;;;6.43;4.22;;;21.60;99.90;;;;;;5033966;28;20653;-76
2023/09/29 09:43:43;;;;;;;7.95;4.40;;;21.60;99.90;;;;;;5033954;28;20209;-76
2023/09/29 09:46:17;;;;;;;8.07;4.88;;;21.60;99.90;;;;;;5025488;28;20285;-76
2023/09/29 09:48:57;;;;;;;7.70;4.35;;;21.60;99.90;;;;;;5014675;28;20261;-77
2023/09/29 09:51:36;;;;;;;10.07;4.43;;;21.60;99.90;;;;;;5014457;28;20193;-77
2023/09/29 09:54:18;;;;;;;8.00;4.68;;;21.60;99.90;;;;;;5038914;28;20223;-77
2023/09/29 09:57:04;;;;;;;6.82;4.63;;;21.60;99.90;;;;;;5030382;28;20201;-77
2023/09/29 09:59:35;;;;;;;5.55;4.40;;;21.60;99.90;;;;;;5031617;28;20622;-77
2023/09/29 10:02:11;;;;;;;6.68;4.50;;;21.60;99.90;;;;;;5014515;28;20727;-76
2023/09/29 10:04:45;;;;;;;6.35;4.28;;;21.60;99.90;;;;;;5030959;28;20209;-77
2023/09/29 10:07:17;;;;;;;5.05;4.15;;;21.50;99.90;;;;;;5020201;28;20660;-77
2023/09/29 10:09:50;;;;;;;5.35;4.15;;;21.50;99.90;;;;;;5025145;28;20217;-77
2023/09/29 10:12:31;;;;;;;9.70;4.90;;;21.50;99.90;;;;;;5032784;28;20219;-76
2023/09/29 10:15:05;;;;;;;7.22;5.40;;;21.50;99.90;;;;;;5038766;28;20196;-77
2023/09/29 10:17:48;;;;;;;9.30;5.47;;;21.40;99.90;;;;;;5040001;28;20200;-77
2023/09/29 10:20:27;;;;;;;8.05;4.78;;;21.40;99.90;;;;;;5027290;28;20202;-77
2023/09/29 10:23:07;;;;;;;6.63;4.38;;;21.30;99.90;;;;;;5019618;28;20202;-77
2023/09/29 10:25:40;;;;;;;6.32;4.45;;;21.30;99.90;;;;;;5017612;28;20390;-76
2023/09/29 10:28:12;;;;;;;7.28;5.00;;;21.30;99.90;;;;;;5027072;28;20231;-78
2023/09/29 10:30:43;;;;;;;6.82;4.70;;;21.20;99.90;;;;;;5037686;28;20201;-76
2023/09/29 10:33:16;;;;;;;6.57;4.20;;;21.20;99.90;;;;;;5036557;28;20284;-77
2023/09/29 10:35:48;;;;;;;6.80;4.60;;;21.20;99.90;;;;;;5035599;28;20197;-77
2023/09/29 10:38:29;;;;;;;8.10;4.95;;;21.20;99.90;;;;;;5046593;28;20205;-77
2023/09/29 10:41:03;;;;;;;7.05;4.38;;;21.20;99.90;;;;;;5035127;28;20189;-76
2023/09/29 10:43:36;;;;;;;10.32;4.70;;;21.20;99.90;;;;;;5027206;28;20587;-77
2023/09/29 10:46:11;;;;;;;7.75;4.78;;;21.10;99.90;;;;;;5037818;28;20273;-77
2023/09/29 10:48:50;;;;;;;8.00;5.03;;;21.20;99.90;;;;;;5037516;28;20227;-77
2023/09/29 10:51:26;;;;;;;8.77;5.32;;;21.10;99.90;;;;;;5034958;28;20619;-77
2023/09/29 10:53:57;;;;;;;8.38;5.85;;;21.00;99.90;;;;;;5035146;28;20223;-77
2023/09/29 10:56:31;;;;;;;9.82;5.45;;;21.10;99.90;;;;;;5038226;28;20197;-77
2023/09/29 10:59:02;;;;;;;7.90;5.90;;;21.00;99.90;;;;;;5036841;28;20197;-77
2023/09/29 11:01:34;;;;;;;11.18;5.93;;;20.90;99.90;;;;;;5037215;28;20201;-77
2023/09/29 11:04:09;;;;;;;9.70;5.53;;;20.90;99.90;;;;;;5023362;28;20255;-77
2023/09/29 11:06:46;;;;;;;8.40;5.60;;;20.90;99.90;;;;;;5033896;28;20236;-77
2023/09/29 11:09:28;;;;;;;8.93;5.45;;;20.90;99.90;;;;;;5034986;28;20236;-76
2023/09/29 11:12:00;;;;;;;11.20;5.65;;;20.90;99.90;;;;;;5039972;28;20205;-76
2023/09/29 11:14:43;;;;;;;7.97;5.60;;;20.80;99.90;;;;;;5036231;28;20192;-76
2023/09/29 11:17:19;;;;;;;8.82;5.72;;;20.80;99.90;;;;;;5016874;28;20233;-77
2023/09/29 11:19:58;;;;;;;8.65;5.20;;;20.80;99.90;;;;;;5036425;28;20219;-77
2023/09/29 11:22:38;;;;;;;7.35;5.22;;;20.80;99.90;;;;;;5040791;28;20208;-77
2023/09/29 11:25:19;;;;;;;8.18;5.60;;;20.80;99.90;;;;;;5031473;28;20724;-76
2023/09/29 11:27:54;;;;;;;11.48;6.13;;;20.80;99.90;;;;;;5016171;28;20182;-77
2023/09/29 11:30:27;;;;;;;8.82;5.93;;;20.80;99.90;;;;;;5015183;28;20202;-77
2023/09/29 11:32:56;;;;;;;12.10;6.10;;;20.70;99.90;;;;;;5025792;28;20209;-77
2023/09/29 11:35:30;;;;;;;7.97;6.10;;;20.70;99.90;;;;;;5035693;28;20201;-77
2023/09/29 11:38:01;;;;;;;10.43;6.53;;;20.60;99.90;;;;;;5034084;28;20271;-77
2023/09/29 11:40:37;;;;;;;10.85;6.93;;;20.60;99.90;;;;;;5034114;28;20189;-77
2023/09/29 11:43:08;;;;;;;10.60;6.30;;;20.50;99.90;;;;;;5032525;28;20576;-78
2023/09/29 11:45:38;;;;;;;11.02;6.22;;;20.50;99.90;;;;;;5017982;28;20194;-78
2023/09/29 11:48:10;;;;;;;9.85;7.03;;;20.50;99.90;;;;;;5036414;28;20201;-77
2023/09/29 11:50:42;;;;;;;10.80;6.82;;;20.50;99.90;;;;;;5036841;28;20289;-79
2023/09/29 11:53:13;;;;;;;12.45;7.00;;;20.50;99.90;;;;;;5040481;28;20324;-78
2023/09/29 11:55:44;;;;;;;9.52;6.47;;;20.40;99.90;;;;;;5054687;28;20203;-77
2023/09/29 11:58:15;;;;;;;10.98;6.45;;;20.40;99.90;;;;;;5037598;28;20216;-77
2023/09/29 12:00:47;;;;;;;9.82;6.38;;;20.40;99.90;;;;;;5037915;28;20193;-77
2023/09/29 12:03:21;;;;;;;10.90;7.00;;;20.40;99.90;;;;;;5035028;28;20217;-76
2023/09/29 12:05:54;;;;;;;11.70;6.95;;;20.40;99.90;;;;;;5019481;28;20201;-77
2023/09/29 12:08:26;;;;;;;13.15;7.30;;;20.40;99.90;;;;;;5013349;28;20198;-77
2023/09/29 12:10:57;;;;;;;11.30;7.88;;;20.40;99.90;;;;;;5025983;28;20212;-77
2023/09/29 12:13:29;;;;;;;11.13;7.65;;;20.40;99.90;;;;;;5033403;28;20229;-76
2023/09/29 12:16:00;;;;;;;10.68;7.65;;;20.30;99.90;;;;;;5027970;28;20198;-75
2023/09/29 12:18:32;;;;;;;12.50;8.07;;;20.30;99.90;;;;;;5013647;28;20206;-76
2023/09/29 12:21:10;;;;;;;14.07;8.38;;;20.30;99.90;;;;;;5020791;28;20699;-77
2023/09/29 12:23:41;;;;;;;12.52;7.15;;;20.30;99.90;;;;;;5019001;28;20244;-77
2023/09/29 12:26:12;;;;;;;10.32;7.55;;;20.30;99.90;;;;;;5015322;28;20198;-77
2023/09/29 12:28:43;;;;;;;11.75;7.20;;;20.30;99.90;;;;;;5023481;28;20226;-77
2023/09/29 12:31:20;;;;;;;10.80;7.07;;;20.20;99.90;;;;;;5034030;28;20212;-76
2023/09/29 12:33:53;;;;;;;9.05;6.90;;;20.20;99.90;;;;;;5034417;28;20551;-76
2023/09/29 12:36:27;;;;;;;9.60;7.28;;;20.10;99.90;;;;;;5034013;28;20189;-77
2023/09/29 12:38:58;;;;;;;12.95;7.78;;;20.10;99.90;;;;;;5030392;28;20201;-78
2023/09/29 12:41:29;;;;;;;9.15;6.50;;;20.10;99.90;;;;;;5021214;28;20203;-77
2023/09/29 12:43:59;;;;;;;10.60;7.20;;;20.00;99.90;;;;;;5030505;28;20213;-77
2023/09/29 12:46:30;;;;;;;9.40;6.93;;;20.00;99.90;;;;;;5054592;28;20196;-77
2023/09/29 12:49:01;;;;;;;11.07;7.03;;;20.00;99.90;;;;;;5014346;28;20217;-77
2023/09/29 12:51:36;;;;;;;10.98;7.40;;;19.90;99.90;;;;;;5016535;28;20194;-77
2023/09/29 12:54:07;;;;;;;9.80;7.07;;;19.90;99.90;;;;;;5031383;28;20296;-77
2023/09/29 12:56:38;;;;;;;11.02;6.65;;;19.80;99.90;;;;;;5026714;28;20284;-78
2023/09/29 12:59:09;;;;;;;9.20;6.68;;;19.80;99.90;;;;;;5033273;28;20205;-78
2023/09/29 13:01:40;;;;;;;9.50;6.82;;;19.80;99.90;;;;;;5034056;28;20220;-77
2023/09/29 13:04:11;;;;;;;12.98;7.20;;;19.80;99.90;;;;;;5033880;28;20553;-76
2023/09/29 13:06:47;;;;;;;11.95;7.25;;;19.70;99.90;;;;;;5015386;28;20297;-78
2023/09/29 13:09:17;;;;;;;9.68;7.20;;;19.70;99.90;;;;;;5016015;28;20214;-78
2023/09/29 13:11:52;;;;;;;9.30;7.43;;;19.70;99.90;;;;;;5016541;28;20671;-78